Time;durP1;ratioP1;P1;durP2;ratioP2;P2;SDS_P1;SDS_P2;PMS_P1;PMS_P2;Temp;Humidity;BMP_temperature;BMP_pressure;BME280_temperature;BME280_humidity;BME280_pressure;Samples;Min_cycle;Max_cycle;Signal;HPM_P1;HPM_P2
2021/12/16 00:03:08;;;;;;;53.08;36.53;;;3.70;97.40;;;;;;4999434;28;20042;-67
2021/12/16 00:08:23;;;;;;;49.58;34.63;;;3.70;97.40;;;;;;5000922;28;20044;-68
2021/12/16 00:11:22;;;;;;;45.53;32.40;;;3.70;97.30;;;;;;5001282;28;20078;-68
2021/12/16 00:30:37;;;;;;;41.00;28.55;;;3.60;97.60;;;;;;5001436;28;20053;-67
2021/12/16 00:35:46;;;;;;;36.63;26.52;;;3.50;97.40;;;;;;4995437;28;20324;-66
2021/12/16 00:38:12;;;;;;;38.63;27.45;;;3.50;97.50;;;;;;5001309;28;22028;-67
2021/12/16 00:40:40;;;;;;;39.78;26.75;;;3.40;97.50;;;;;;5003611;28;20030;-67
2021/12/16 00:43:16;;;;;;;34.90;25.65;;;3.40;97.60;;;;;;5003811;28;20037;-67
2021/12/16 00:45:57;;;;;;;37.38;26.67;;;3.30;97.50;;;;;;5002546;28;20412;-67
2021/12/16 00:48:26;;;;;;;39.17;26.38;;;3.30;97.50;;;;;;5001774;28;20034;-67
2021/12/16 00:56:13;;;;;;;38.03;26.52;;;3.20;97.70;;;;;;5002420;28;20044;-67
2021/12/16 00:58:45;;;;;;;37.75;26.60;;;3.20;97.80;;;;;;5004031;28;20026;-67
2021/12/16 01:01:32;;;;;;;36.53;26.20;;;3.20;97.60;;;;;;5000393;28;20022;-68
2021/12/16 01:34:20;;;;;;;36.60;25.77;;;3.00;97.50;;;;;;5001044;28;20430;-67
2021/12/16 01:50:11;;;;;;;38.85;26.17;;;2.90;96.80;;;;;;4997518;28;20049;-66
2021/12/16 01:55:26;;;;;;;41.63;26.77;;;2.90;97.20;;;;;;5000672;28;20038;-66
2021/12/16 01:57:57;;;;;;;41.40;27.67;;;2.90;97.20;;;;;;5000727;28;20053;-66
2021/12/16 02:01:10;;;;;;;40.10;27.92;;;2.90;97.70;;;;;;4998540;28;20044;-68
2021/12/16 02:03:45;;;;;;;40.58;28.13;;;2.90;97.50;;;;;;5000716;28;20033;-67
2021/12/16 02:09:41;;;;;;;35.50;24.92;;;2.90;97.40;;;;;;4997979;28;20146;-67
2021/12/16 02:12:21;;;;;;;37.25;25.70;;;2.80;97.10;;;;;;4999452;28;20045;-68
2021/12/16 02:29:05;;;;;;;45.10;29.13;;;2.60;97.70;;;;;;4999549;28;20129;-68
2021/12/16 02:36:27;;;;;;;42.47;28.27;;;2.80;97.80;;;;;;4998428;28;20018;-67
2021/12/16 02:39:03;;;;;;;40.00;26.73;;;2.80;97.80;;;;;;4997399;28;20494;-67
2021/12/16 02:41:29;;;;;;;39.80;26.63;;;2.80;98.00;;;;;;4997560;28;20771;-67
2021/12/16 02:49:29;;;;;;;44.25;29.33;;;2.70;97.90;;;;;;5004770;28;20393;-67
2021/12/16 02:51:57;;;;;;;39.22;26.00;;;2.70;97.90;;;;;;4997445;28;20046;-67
2021/12/16 02:54:24;;;;;;;39.30;25.40;;;2.80;98.00;;;;;;5000142;28;20110;-67
2021/12/16 02:56:50;;;;;;;35.22;25.35;;;2.80;97.80;;;;;;4999144;28;20034;-66
2021/12/16 02:59:18;;;;;;;38.53;25.73;;;2.70;97.70;;;;;;5001540;28;20034;-66
2021/12/16 03:01:48;;;;;;;38.80;26.88;;;2.70;97.60;;;;;;4996157;28;20547;-68
2021/12/16 03:04:16;;;;;;;36.30;25.35;;;2.70;97.50;;;;;;4994762;28;20737;-67
2021/12/16 03:06:46;;;;;;;40.28;26.92;;;2.70;97.50;;;;;;4996136;28;20523;-66
2021/12/16 03:09:15;;;;;;;47.05;29.02;;;2.60;97.60;;;;;;4992117;28;20088;-67
2021/12/16 03:14:31;;;;;;;39.17;25.40;;;2.70;97.80;;;;;;4994703;28;20106;-67
2021/12/16 03:17:13;;;;;;;45.95;28.50;;;2.70;97.70;;;;;;4994953;28;20074;-67
2021/12/16 03:22:10;;;;;;;33.55;24.00;;;2.70;97.50;;;;;;4996626;28;20038;-67
2021/12/16 03:27:43;;;;;;;51.33;32.05;;;2.60;98.10;;;;;;5001169;28;20069;-66
2021/12/16 03:30:37;;;;;;;48.65;29.80;;;2.60;98.30;;;;;;4998481;28;20528;-67
2021/12/16 03:38:21;;;;;;;47.35;29.45;;;2.70;98.60;;;;;;4996804;28;20542;-67
2021/12/16 03:40:47;;;;;;;60.78;32.65;;;2.70;98.50;;;;;;4995290;28;20678;-66
2021/12/16 03:43:16;;;;;;;61.28;32.25;;;2.70;98.60;;;;;;5000163;28;20026;-67
2021/12/16 03:48:52;;;;;;;64.00;32.55;;;2.70;98.90;;;;;;4997088;28;20115;-66
2021/12/16 03:51:20;;;;;;;68.13;31.70;;;2.70;99.20;;;;;;4996702;28;20038;-67
2021/12/16 03:53:49;;;;;;;65.35;36.70;;;2.60;99.20;;;;;;4994563;28;20050;-66
2021/12/16 03:56:16;;;;;;;82.95;36.38;;;2.50;99.30;;;;;;4996643;28;20621;-67
2021/12/16 03:58:41;;;;;;;100.57;44.97;;;2.50;99.50;;;;;;4995163;28;20042;-67
2021/12/16 04:01:11;;;;;;;86.68;40.25;;;2.50;99.60;;;;;;4994602;28;20588;-67
2021/12/16 04:03:38;;;;;;;84.88;40.10;;;2.50;99.80;;;;;;4998882;28;20037;-67
2021/12/16 04:06:05;;;;;;;72.60;36.63;;;2.50;99.90;;;;;;4999207;28;20160;-67
2021/12/16 04:08:30;;;;;;;64.68;33.10;;;2.60;99.90;;;;;;4996069;28;20035;-67
2021/12/16 04:11:04;;;;;;;77.60;33.72;;;2.60;99.90;;;;;;4997251;28;20081;-67
2021/12/16 04:13:36;;;;;;;85.03;33.00;;;2.60;99.70;;;;;;4994995;28;20594;-67
2021/12/16 04:16:03;;;;;;;64.97;33.33;;;2.70;99.90;;;;;;4994192;28;20054;-67
2021/12/16 04:18:28;;;;;;;65.60;32.70;;;2.70;99.90;;;;;;4994621;28;20468;-67
2021/12/16 04:20:54;;;;;;;58.58;32.15;;;2.70;99.90;;;;;;4996677;28;20040;-67
2021/12/16 04:23:20;;;;;;;64.95;33.75;;;2.70;99.90;;;;;;4997893;28;20069;-67
2021/12/16 04:25:47;;;;;;;69.43;33.35;;;2.70;99.90;;;;;;4995684;28;20053;-66
2021/12/16 04:28:21;;;;;;;62.15;33.67;;;2.80;99.90;;;;;;4998361;28;20042;-67
2021/12/16 04:30:47;;;;;;;60.85;34.17;;;2.80;99.90;;;;;;4994432;28;20472;-67
2021/12/16 04:33:13;;;;;;;68.82;34.38;;;2.80;99.90;;;;;;5001319;28;20445;-67
2021/12/16 04:35:40;;;;;;;65.68;33.42;;;2.90;99.90;;;;;;5005506;28;20115;-67
2021/12/16 04:38:11;;;;;;;68.20;34.70;;;2.90;99.90;;;;;;4995805;28;20057;-67
2021/12/16 04:40:38;;;;;;;72.72;34.22;;;2.90;99.90;;;;;;5002955;28;20038;-67
2021/12/16 04:43:06;;;;;;;87.95;36.80;;;2.90;99.90;;;;;;5002002;28;20377;-67
2021/12/16 04:45:33;;;;;;;80.90;34.55;;;3.00;99.90;;;;;;5002236;28;20079;-66
2021/12/16 04:48:00;;;;;;;82.18;33.13;;;3.00;99.90;;;;;;5000758;28;20164;-67
2021/12/16 04:50:26;;;;;;;85.20;32.95;;;3.00;99.90;;;;;;4999459;28;20038;-67
2021/12/16 04:52:52;;;;;;;73.82;33.92;;;3.00;99.90;;;;;;5000298;28;20046;-66
2021/12/16 04:55:20;;;;;;;128.27;37.05;;;3.10;99.90;;;;;;5000337;28;20030;-67
2021/12/16 04:57:47;;;;;;;74.30;35.17;;;2.90;99.90;;;;;;4999593;28;20018;-67
2021/12/16 05:00:16;;;;;;;103.03;40.55;;;2.80;99.90;;;;;;4997418;28;20045;-66
2021/12/16 05:02:43;;;;;;;97.45;39.05;;;2.80;99.90;;;;;;5001226;28;20042;-67
2021/12/16 05:05:09;;;;;;;83.65;43.15;;;2.70;99.90;;;;;;5002499;28;20488;-66
2021/12/16 05:07:35;;;;;;;113.30;58.60;;;2.60;99.90;;;;;;5000476;28;20669;-67
2021/12/16 05:10:10;;;;;;;133.18;67.80;;;2.70;99.90;;;;;;4998277;28;20023;-67
2021/12/16 05:12:58;;;;;;;119.57;58.05;;;2.80;99.90;;;;;;4997186;28;20089;-67
2021/12/16 05:15:29;;;;;;;165.07;74.00;;;2.90;99.90;;;;;;5001085;28;20026;-67
2021/12/16 05:17:57;;;;;;;189.02;76.10;;;2.90;99.90;;;;;;5001735;28;20112;-67
2021/12/16 05:20:30;;;;;;;184.07;77.22;;;2.90;99.90;;;;;;4997057;28;20034;-67
2021/12/16 05:28:17;;;;;;;131.52;64.85;;;3.10;99.90;;;;;;4996670;28;20041;-67
2021/12/16 05:30:43;;;;;;;140.05;65.78;;;3.10;99.90;;;;;;4995447;28;20057;-67
2021/12/16 05:33:09;;;;;;;144.20;68.55;;;3.10;99.90;;;;;;5002907;28;20064;-66
2021/12/16 05:35:36;;;;;;;150.23;70.90;;;3.10;99.90;;;;;;4999751;28;20508;-66
2021/12/16 05:38:02;;;;;;;156.95;65.20;;;3.20;99.90;;;;;;4995727;28;20037;-67
2021/12/16 05:40:29;;;;;;;150.77;56.00;;;3.20;99.90;;;;;;4996500;28;20084;-66
2021/12/16 05:43:02;;;;;;;162.27;56.13;;;3.10;99.90;;;;;;4995394;28;20708;-66
2021/12/16 05:45:29;;;;;;;144.32;77.47;;;3.00;99.90;;;;;;4999387;28;20050;-66
2021/12/16 05:47:57;;;;;;;105.32;58.78;;;2.90;99.90;;;;;;4995604;28;20096;-66
2021/12/16 05:50:26;;;;;;;131.88;63.63;;;2.90;99.90;;;;;;4997009;28;20034;-67
2021/12/16 05:52:51;;;;;;;145.65;69.82;;;3.00;99.90;;;;;;5002205;28;20476;-67
2021/12/16 05:55:18;;;;;;;151.15;71.07;;;3.10;99.90;;;;;;4997567;28;20034;-67
2021/12/16 05:57:45;;;;;;;163.23;72.53;;;3.10;99.90;;;;;;4999050;28;20638;-67
2021/12/16 06:00:27;;;;;;;142.15;48.30;;;3.10;99.90;;;;;;4994789;28;20018;-66
2021/12/16 06:02:53;;;;;;;128.50;42.88;;;3.20;99.90;;;;;;5000502;28;20383;-67
2021/12/16 06:05:20;;;;;;;103.95;38.22;;;3.20;99.90;;;;;;4995822;28;20034;-66
2021/12/16 06:07:46;;;;;;;115.82;36.58;;;3.20;99.90;;;;;;4996554;28;20026;-68
2021/12/16 06:10:49;;;;;;;74.72;34.25;;;3.20;99.90;;;;;;5001235;28;20052;-66
2021/12/16 06:13:00;;;;;;;68.78;29.70;;;3.10;99.90;;;;;;4995441;28;20072;-66
2021/12/16 06:28:51;;;;;;;72.75;25.58;;;3.10;99.90;;;;;;4997997;28;20037;-66
2021/12/16 06:31:21;;;;;;;68.57;25.13;;;3.10;99.90;;;;;;4998343;28;20492;-66
2021/12/16 06:33:47;;;;;;;63.72;24.85;;;3.10;99.90;;;;;;5001722;28;20029;-66
2021/12/16 06:36:13;;;;;;;37.25;22.15;;;3.10;99.90;;;;;;4998004;28;20041;-66
2021/12/16 06:38:39;;;;;;;43.67;25.02;;;3.10;99.90;;;;;;4998285;28;20113;-67
2021/12/16 06:41:08;;;;;;;52.08;26.45;;;3.10;99.90;;;;;;4999995;28;20668;-67
2021/12/16 06:43:35;;;;;;;47.40;25.58;;;3.20;99.90;;;;;;4995224;28;20077;-67
2021/12/16 06:46:04;;;;;;;82.38;37.53;;;3.20;99.90;;;;;;5000435;28;20096;-66
2021/12/16 06:48:33;;;;;;;65.35;30.98;;;3.30;99.90;;;;;;4999335;28;20078;-66
2021/12/16 06:51:08;;;;;;;58.03;30.27;;;3.20;99.90;;;;;;4996563;28;20038;-66
2021/12/16 06:53:49;;;;;;;61.53;29.45;;;3.20;99.90;;;;;;5003866;28;20148;-66
2021/12/16 06:56:23;;;;;;;48.22;29.83;;;3.20;99.90;;;;;;5005784;28;20029;-66
2021/12/16 06:59:01;;;;;;;61.53;32.97;;;3.20;99.90;;;;;;5003532;28;20532;-65
2021/12/16 07:01:39;;;;;;;135.55;47.78;;;3.20;99.90;;;;;;5008410;28;20041;-66
2021/12/16 07:04:09;;;;;;;62.00;33.03;;;3.20;99.90;;;;;;5006031;28;20034;-66
2021/12/16 07:06:36;;;;;;;86.00;31.52;;;3.20;99.90;;;;;;5007981;28;20097;-65
2021/12/16 07:09:22;;;;;;;64.30;28.73;;;3.20;99.90;;;;;;5006562;28;20033;-66
2021/12/16 07:11:52;;;;;;;68.32;29.98;;;3.20;99.90;;;;;;5006873;28;20061;-66
2021/12/16 07:14:23;;;;;;;50.50;27.27;;;3.20;99.70;;;;;;5002254;28;20030;-66
2021/12/16 07:16:52;;;;;;;62.72;27.95;;;3.10;99.80;;;;;;5001888;28;20427;-66
2021/12/16 07:19:18;;;;;;;63.60;28.88;;;3.10;99.70;;;;;;5003133;28;20109;-66
2021/12/16 07:21:44;;;;;;;57.90;27.45;;;3.00;99.90;;;;;;5004055;28;20529;-66
2021/12/16 07:24:13;;;;;;;61.67;27.15;;;3.00;99.80;;;;;;5034100;28;20038;-66
2021/12/16 07:26:40;;;;;;;53.28;28.52;;;3.00;99.80;;;;;;5007384;28;20542;-66
2021/12/16 07:29:07;;;;;;;46.33;25.45;;;3.00;99.80;;;;;;5006778;28;20057;-66
2021/12/16 07:31:33;;;;;;;47.70;26.90;;;3.00;99.90;;;;;;4999472;28;20050;-66
2021/12/16 07:34:00;;;;;;;47.83;25.80;;;3.10;99.90;;;;;;5001798;28;20033;-65
2021/12/16 07:36:27;;;;;;;67.50;31.05;;;3.00;99.90;;;;;;5005126;28;20492;-66
2021/12/16 07:38:54;;;;;;;55.05;27.33;;;3.00;99.90;;;;;;5007327;28;20089;-66
2021/12/16 07:41:22;;;;;;;54.28;28.48;;;3.00;99.90;;;;;;5009048;28;20041;-65
2021/12/16 07:46:32;;;;;;;62.47;30.48;;;3.10;99.90;;;;;;5010487;28;20057;-66
2021/12/16 07:48:59;;;;;;;56.53;30.92;;;3.10;99.90;;;;;;5003601;28;20034;-65
2021/12/16 07:51:24;;;;;;;61.53;33.63;;;3.20;99.90;;;;;;5001907;28;20049;-67
2021/12/16 07:53:50;;;;;;;62.47;34.63;;;3.20;99.90;;;;;;5001026;28;20077;-65
2021/12/16 07:56:16;;;;;;;60.20;33.88;;;3.10;99.90;;;;;;5004811;28;20037;-65
2021/12/16 07:58:42;;;;;;;61.65;33.22;;;3.20;99.90;;;;;;5006400;28;20048;-66
2021/12/16 08:01:08;;;;;;;53.60;30.30;;;3.20;99.90;;;;;;5002576;28;20054;-66
2021/12/16 08:03:36;;;;;;;44.10;27.08;;;3.30;99.90;;;;;;5004393;28;20489;-66
2021/12/16 08:06:06;;;;;;;46.28;29.23;;;3.30;99.90;;;;;;5004902;28;20050;-66
2021/12/16 08:08:32;;;;;;;49.33;30.98;;;3.30;99.90;;;;;;5001714;28;20034;-66
2021/12/16 08:10:58;;;;;;;48.08;30.52;;;3.30;99.90;;;;;;5004409;28;20164;-66
2021/12/16 08:13:25;;;;;;;43.53;26.95;;;3.30;99.90;;;;;;5000326;28;20429;-66
2021/12/16 08:15:51;;;;;;;38.58;27.02;;;3.40;99.90;;;;;;4999117;28;20030;-66
2021/12/16 08:18:17;;;;;;;37.90;25.92;;;3.40;99.90;;;;;;4998769;28;20058;-66
2021/12/16 08:20:43;;;;;;;43.03;26.98;;;3.50;99.70;;;;;;4999853;28;20109;-66
2021/12/16 08:23:09;;;;;;;43.90;31.00;;;3.50;99.70;;;;;;5002170;28;20041;-66
2021/12/16 08:25:35;;;;;;;40.03;27.77;;;3.50;99.60;;;;;;4999572;28;21645;-66
2021/12/16 08:28:03;;;;;;;37.78;26.10;;;3.50;99.80;;;;;;5002781;28;20034;-66
2021/12/16 08:30:33;;;;;;;36.20;24.50;;;3.50;99.70;;;;;;5003505;28;20037;-66
2021/12/16 08:33:04;;;;;;;34.17;23.77;;;3.50;99.80;;;;;;4997405;28;20038;-66
2021/12/16 08:35:30;;;;;;;40.38;25.90;;;3.60;99.70;;;;;;4996562;28;20153;-66
2021/12/16 08:37:56;;;;;;;38.85;25.67;;;3.60;99.60;;;;;;4998238;28;20026;-66
2021/12/16 08:40:24;;;;;;;40.63;25.17;;;3.60;99.70;;;;;;4999924;28;20034;-66
2021/12/16 08:42:51;;;;;;;38.70;25.52;;;3.60;99.50;;;;;;5030444;28;20480;-66
2021/12/16 08:45:25;;;;;;;35.03;25.02;;;3.60;99.40;;;;;;5003315;28;20096;-65
2021/12/16 08:47:52;;;;;;;35.53;23.40;;;3.70;99.40;;;;;;4998913;28;20160;-66
2021/12/16 08:50:22;;;;;;;39.85;25.23;;;3.70;99.40;;;;;;5001726;28;20507;-66
2021/12/16 08:52:48;;;;;;;40.80;27.30;;;3.70;99.40;;;;;;4998090;28;20443;-66
2021/12/16 08:55:15;;;;;;;46.85;30.05;;;3.70;99.50;;;;;;5029020;28;20099;-65
2021/12/16 08:57:42;;;;;;;36.42;23.58;;;3.80;99.50;;;;;;4997820;28;20042;-66
2021/12/16 09:00:13;;;;;;;38.60;24.60;;;3.80;99.50;;;;;;4999700;28;20038;-66
2021/12/16 09:02:40;;;;;;;42.40;25.58;;;3.90;99.50;;;;;;4998849;28;20027;-66
2021/12/16 09:05:06;;;;;;;41.33;25.58;;;3.90;99.40;;;;;;5001343;28;20030;-66
2021/12/16 09:07:32;;;;;;;42.03;26.10;;;4.00;99.40;;;;;;4997796;28;20758;-66
2021/12/16 09:09:58;;;;;;;41.03;25.80;;;4.00;99.40;;;;;;4999751;28;20044;-66
2021/12/16 09:14:58;;;;;;;40.60;24.38;;;4.10;99.50;;;;;;5001876;28;20044;-65
2021/12/16 09:17:24;;;;;;;42.05;26.77;;;4.10;99.30;;;;;;4995651;28;20037;-66
2021/12/16 09:19:53;;;;;;;37.35;25.02;;;4.10;99.40;;;;;;5003248;28;20476;-66
2021/12/16 09:22:20;;;;;;;39.25;25.55;;;4.20;99.40;;;;;;4999553;28;20057;-66
2021/12/16 09:24:48;;;;;;;37.78;24.27;;;4.20;99.40;;;;;;5003695;28;20117;-66
2021/12/16 09:27:16;;;;;;;45.17;25.90;;;4.20;99.40;;;;;;4998588;28;20058;-66
2021/12/16 09:29:43;;;;;;;52.20;32.53;;;4.10;99.50;;;;;;5002442;28;20029;-66
2021/12/16 09:32:09;;;;;;;44.78;29.13;;;4.10;99.50;;;;;;5000968;28;20480;-66
2021/12/16 09:34:40;;;;;;;50.38;30.63;;;4.10;99.50;;;;;;5000628;28;20034;-66
2021/12/16 09:37:06;;;;;;;56.00;31.63;;;4.10;99.70;;;;;;5001018;28;20029;-66
2021/12/16 09:39:32;;;;;;;48.03;30.38;;;4.00;99.50;;;;;;4999913;28;20287;-66
2021/12/16 09:41:59;;;;;;;52.63;29.98;;;4.00;99.60;;;;;;5001046;28;20096;-65
2021/12/16 09:44:27;;;;;;;55.15;33.55;;;4.00;99.70;;;;;;4999710;28;20050;-66
2021/12/16 09:46:55;;;;;;;56.88;32.30;;;3.90;99.60;;;;;;5001014;28;20036;-66
2021/12/16 09:49:21;;;;;;;54.88;32.05;;;4.00;99.90;;;;;;4994958;28;20032;-66
2021/12/16 09:51:51;;;;;;;56.90;32.97;;;3.90;99.90;;;;;;4996021;28;20114;-66
2021/12/16 09:54:23;;;;;;;58.67;33.63;;;4.00;99.90;;;;;;4999432;28;20026;-66
2021/12/16 09:56:50;;;;;;;56.47;33.17;;;4.00;99.90;;;;;;5002428;28;20022;-66
2021/12/16 09:59:17;;;;;;;70.28;44.15;;;4.10;99.90;;;;;;4999916;28;20030;-66
2021/12/16 10:01:49;;;;;;;58.60;33.22;;;4.10;99.90;;;;;;4999459;28;20096;-66
2021/12/16 10:04:19;;;;;;;;;;;4.20;99.70;;;;;;5001645;28;20022;-67
2021/12/16 10:06:49;;;;;;;50.50;29.85;;;4.20;99.70;;;;;;4999597;28;19913;-66
2021/12/16 10:09:15;;;;;;;53.47;29.88;;;4.30;99.40;;;;;;4998385;28;20053;-66
2021/12/16 10:11:47;;;;;;;53.03;29.90;;;4.20;99.40;;;;;;5000000;28;20041;-66
2021/12/16 10:19:26;;;;;;;57.17;32.92;;;4.30;99.40;;;;;;5001859;28;20759;-67
2021/12/16 10:21:53;;;;;;;59.70;31.45;;;4.30;99.50;;;;;;5002115;28;20059;-66
2021/12/16 10:24:25;;;;;;;62.47;31.58;;;4.30;99.40;;;;;;5004542;28;21671;-66
2021/12/16 10:27:04;;;;;;;54.55;31.60;;;4.30;99.40;;;;;;5002469;28;20587;-66
2021/12/16 10:29:38;;;;;;;50.88;30.23;;;4.30;99.50;;;;;;4997359;28;20022;-66
2021/12/16 10:32:06;;;;;;;51.03;30.13;;;4.30;99.60;;;;;;4995481;28;20498;-66
2021/12/16 10:34:32;;;;;;;51.20;31.02;;;4.40;99.60;;;;;;5000891;28;20029;-66
2021/12/16 10:36:59;;;;;;;50.63;29.85;;;4.40;99.50;;;;;;5001281;28;20026;-66
2021/12/16 10:39:26;;;;;;;49.78;28.08;;;4.40;99.30;;;;;;4998246;28;20107;-66
2021/12/16 10:41:56;;;;;;;49.80;29.42;;;4.40;99.40;;;;;;4998074;28;20069;-66
2021/12/16 10:44:32;;;;;;;44.85;26.90;;;4.40;99.50;;;;;;4995139;28;20050;-66
2021/12/16 10:47:03;;;;;;;45.22;27.40;;;4.50;99.60;;;;;;4996834;28;20023;-66
2021/12/16 10:49:33;;;;;;;50.85;30.73;;;4.60;99.50;;;;;;4998166;28;20105;-66
2021/12/16 10:52:07;;;;;;;46.28;27.10;;;4.70;99.50;;;;;;4998302;28;20038;-66
2021/12/16 10:54:42;;;;;;;45.78;28.00;;;4.70;99.40;;;;;;4999098;28;20034;-66
2021/12/16 10:57:15;;;;;;;47.75;27.58;;;4.90;99.30;;;;;;5000307;28;20030;-66
2021/12/16 10:59:44;;;;;;;42.00;26.60;;;5.00;99.00;;;;;;4998419;28;20034;-66
2021/12/16 11:02:12;;;;;;;45.75;28.77;;;5.10;98.90;;;;;;4996546;28;20022;-66
2021/12/16 11:04:40;;;;;;;47.05;29.05;;;5.20;98.60;;;;;;4995102;28;20129;-66
2021/12/16 11:07:14;;;;;;;49.88;29.55;;;5.10;98.70;;;;;;4984755;28;20657;-66
2021/12/16 11:10:02;;;;;;;47.05;30.00;;;5.10;99.00;;;;;;4992231;28;20038;-66
2021/12/16 11:12:36;;;;;;;30.13;19.63;;;5.10;99.00;;;;;;4992311;28;20502;-66
2021/12/16 11:15:31;;;;;;;31.13;20.20;;;5.20;99.00;;;;;;4998409;28;20537;-66
2021/12/16 11:18:07;;;;;;;31.48;20.65;;;5.30;98.90;;;;;;4995961;28;20018;-66
2021/12/16 11:20:38;;;;;;;39.03;25.33;;;5.20;98.70;;;;;;4993804;28;20068;-66
2021/12/16 11:23:18;;;;;;;48.17;28.88;;;5.10;99.00;;;;;;4992685;28;20121;-66
2021/12/16 11:25:52;;;;;;;43.40;28.38;;;5.10;99.10;;;;;;4996213;28;20109;-66
2021/12/16 11:28:28;;;;;;;47.30;28.70;;;5.20;99.10;;;;;;5000648;28;20053;-66
2021/12/16 11:31:00;;;;;;;46.88;27.90;;;5.20;98.90;;;;;;4995066;28;20087;-66
2021/12/16 11:33:27;;;;;;;43.25;28.30;;;5.10;98.70;;;;;;4989397;28;20037;-66
2021/12/16 11:35:57;;;;;;;41.95;27.70;;;5.00;98.80;;;;;;4994719;28;20038;-66
2021/12/16 11:38:28;;;;;;;44.08;27.88;;;4.90;98.80;;;;;;4994038;28;20084;-66
2021/12/16 11:41:17;;;;;;;41.58;26.98;;;4.90;99.10;;;;;;4998611;28;20037;-66
2021/12/16 11:43:54;;;;;;;46.13;28.15;;;5.00;99.10;;;;;;4998245;28;20093;-66
2021/12/16 11:46:30;;;;;;;45.70;28.60;;;5.10;99.00;;;;;;5001258;28;20511;-66
2021/12/16 11:49:08;;;;;;;42.97;27.58;;;5.20;99.10;;;;;;5001595;28;20030;-66
2021/12/16 11:51:42;;;;;;;51.05;30.38;;;5.30;98.70;;;;;;5000087;28;20034;-66
2021/12/16 11:54:27;;;;;;;45.30;26.33;;;5.40;98.60;;;;;;4999640;28;20061;-66
2021/12/16 11:57:14;;;;;;;44.00;28.10;;;5.50;98.60;;;;;;5005091;28;20030;-66
2021/12/16 11:59:42;;;;;;;42.00;27.58;;;5.50;98.40;;;;;;5000170;28;20031;-66
2021/12/16 12:02:27;;;;;;;44.85;28.60;;;5.60;98.40;;;;;;4996675;28;20687;-65
2021/12/16 12:05:11;;;;;;;49.15;29.50;;;5.70;98.40;;;;;;5000110;28;20034;-65
2021/12/16 12:07:42;;;;;;;42.70;26.98;;;5.80;98.20;;;;;;5000557;28;20060;-65
2021/12/16 12:10:08;;;;;;;40.55;27.05;;;5.80;98.10;;;;;;5002208;28;20034;-65
2021/12/16 12:12:44;;;;;;;39.60;25.90;;;5.90;98.00;;;;;;5002661;28;20042;-65
2021/12/16 12:15:13;;;;;;;39.00;25.35;;;5.90;97.80;;;;;;5000971;28;20045;-65
2021/12/16 12:17:57;;;;;;;38.53;25.92;;;5.90;97.80;;;;;;4998628;28;20014;-65
2021/12/16 12:20:36;;;;;;;34.20;23.90;;;5.90;97.90;;;;;;5029151;28;20076;-65
2021/12/16 12:23:03;;;;;;;33.17;23.40;;;5.90;98.10;;;;;;5003625;28;21238;-65
2021/12/16 12:25:28;;;;;;;32.03;23.25;;;5.90;98.00;;;;;;5002608;28;20049;-65
2021/12/16 12:27:54;;;;;;;32.67;23.40;;;5.90;97.80;;;;;;5003901;28;20053;-65
2021/12/16 12:30:20;;;;;;;33.92;24.60;;;6.00;97.70;;;;;;4996427;28;20057;-65
2021/12/16 12:32:51;;;;;;;35.42;23.88;;;5.90;97.80;;;;;;5000198;28;20098;-65
2021/12/16 12:35:20;;;;;;;36.60;24.38;;;5.90;97.70;;;;;;4997715;28;20042;-66
2021/12/16 12:37:50;;;;;;;33.05;22.67;;;5.90;97.80;;;;;;5003671;28;20077;-65
2021/12/16 12:40:24;;;;;;;33.95;24.50;;;5.90;97.90;;;;;;5001243;28;20623;-66
2021/12/16 12:42:52;;;;;;;34.00;24.05;;;5.90;98.00;;;;;;4999399;28;20030;-66
2021/12/16 12:45:22;;;;;;;30.95;22.75;;;5.90;98.00;;;;;;4998134;28;20050;-66
2021/12/16 12:47:52;;;;;;;30.30;21.55;;;6.00;98.00;;;;;;5005077;28;20048;-64
2021/12/16 12:50:26;;;;;;;31.17;23.23;;;6.20;97.80;;;;;;4996597;28;20030;-65
2021/12/16 12:52:54;;;;;;;31.50;22.55;;;6.20;97.70;;;;;;4999983;28;20209;-65
2021/12/16 12:55:26;;;;;;;28.95;22.33;;;6.30;97.50;;;;;;4999254;28;20819;-65
2021/12/16 12:58:12;;;;;;;33.00;21.65;;;6.40;97.40;;;;;;5001261;28;20072;-65
2021/12/16 13:00:45;;;;;;;28.35;20.38;;;6.50;97.30;;;;;;4996044;28;20038;-66
2021/12/16 13:03:35;;;;;;;28.27;20.35;;;6.50;97.20;;;;;;4998378;28;20026;-65
2021/12/16 13:06:04;;;;;;;30.15;20.70;;;6.50;97.20;;;;;;4993612;28;20558;-65
2021/12/16 13:08:35;;;;;;;28.05;21.45;;;6.60;97.00;;;;;;4987283;28;20020;-66
2021/12/16 13:11:09;;;;;;;31.90;22.63;;;6.60;96.90;;;;;;4990129;28;20396;-66
2021/12/16 13:13:44;;;;;;;29.98;22.13;;;6.60;96.70;;;;;;4990750;28;20033;-67
2021/12/16 13:28:18;;;;;;;28.77;21.77;;;6.70;96.50;;;;;;4995533;28;20103;-66
2021/12/16 13:31:00;;;;;;;29.48;20.52;;;6.70;96.40;;;;;;4996435;28;20049;-66
2021/12/16 13:33:53;;;;;;;;;;;6.70;96.50;;;;;;4993943;28;20046;-65
2021/12/16 13:36:38;;;;;;;31.05;22.13;;;6.70;96.30;;;;;;4998508;28;19917;-66
2021/12/16 13:39:09;;;;;;;31.65;23.63;;;6.60;96.40;;;;;;4996578;28;20499;-66
2021/12/16 13:41:36;;;;;;;30.65;22.67;;;6.60;96.40;;;;;;4994367;28;20042;-66
2021/12/16 13:44:14;;;;;;;32.13;22.85;;;6.60;96.50;;;;;;4999500;28;20022;-66
2021/12/16 13:47:16;;;;;;;32.78;23.48;;;6.60;96.50;;;;;;4996272;28;20105;-66
2021/12/16 14:02:14;;;;;;;86.60;48.78;;;6.50;96.60;;;;;;4999943;28;20416;-66
2021/12/16 14:09:59;;;;;;;30.95;22.45;;;6.40;96.90;;;;;;4994301;28;20049;-65
2021/12/16 14:13:30;;;;;;;32.83;24.30;;;6.30;96.50;;;;;;4997381;28;20029;-65
2021/12/16 14:15:19;;;;;;;38.05;27.50;;;6.20;96.80;;;;;;5001716;28;20049;-66
2021/12/16 14:23:50;;;;;;;33.42;24.50;;;6.00;97.10;;;;;;5000039;28;20552;-66
2021/12/16 14:26:48;;;;;;;32.80;22.98;;;6.00;97.10;;;;;;4999905;28;20113;-66
2021/12/16 14:38:09;;;;;;;153.10;93.68;;;5.90;97.20;;;;;;4988978;28;20041;-66
2021/12/16 14:40:50;;;;;;;58.10;37.40;;;5.90;97.20;;;;;;4994777;28;20058;-65
2021/12/16 14:43:36;;;;;;;49.83;32.50;;;5.80;97.40;;;;;;4995300;28;20036;-65
2021/12/16 14:46:04;;;;;;;158.55;101.13;;;5.80;97.40;;;;;;4994897;28;21307;-65
2021/12/16 14:48:35;;;;;;;59.30;41.08;;;5.80;97.60;;;;;;4996000;28;20040;-66
2021/12/16 14:51:11;;;;;;;57.97;40.08;;;5.80;97.40;;;;;;4999472;28;20033;-65
2021/12/16 14:53:40;;;;;;;53.40;35.63;;;5.80;97.50;;;;;;4997414;28;20034;-65
2021/12/16 14:56:17;;;;;;;61.70;41.78;;;5.80;97.50;;;;;;4991963;28;20475;-66
2021/12/16 14:58:47;;;;;;;57.53;38.53;;;5.80;97.60;;;;;;4991978;28;20042;-66
2021/12/16 15:01:40;;;;;;;60.45;43.53;;;5.80;97.80;;;;;;4987809;28;20187;-66
2021/12/16 15:04:08;;;;;;;39.85;28.83;;;5.70;98.00;;;;;;4985124;28;20077;-66
2021/12/16 15:06:43;;;;;;;54.58;38.22;;;5.70;97.80;;;;;;4996560;28;20048;-66
2021/12/16 15:09:27;;;;;;;48.90;33.35;;;5.70;97.70;;;;;;4998636;28;20025;-66
2021/12/16 15:12:14;;;;;;;41.53;28.42;;;5.70;97.60;;;;;;4996410;28;20497;-66
2021/12/16 15:15:13;;;;;;;52.50;34.67;;;5.70;97.50;;;;;;4996235;28;20026;-66
2021/12/16 15:40:28;;;;;;;48.00;31.55;;;5.50;97.50;;;;;;4997006;28;20073;-66
2021/12/16 15:42:57;;;;;;;39.35;27.23;;;5.50;97.10;;;;;;5003138;28;20053;-66
2021/12/16 15:45:31;;;;;;;34.30;24.95;;;5.40;97.30;;;;;;5003939;28;20087;-65
2021/12/16 15:47:57;;;;;;;29.90;21.80;;;5.40;97.40;;;;;;5000002;28;20472;-67
2021/12/16 15:50:28;;;;;;;32.05;22.25;;;5.30;97.20;;;;;;4998842;28;20068;-65
2021/12/16 15:52:55;;;;;;;33.20;23.30;;;5.20;97.30;;;;;;5000833;28;20062;-65
2021/12/16 15:56:07;;;;;;;37.92;24.50;;;5.20;97.40;;;;;;5002285;28;20030;-66
2021/12/16 15:58:40;;;;;;;43.67;30.58;;;5.00;97.60;;;;;;4999027;28;20073;-66
2021/12/16 16:01:31;;;;;;;61.28;36.70;;;4.90;98.00;;;;;;5001378;28;20063;-65
2021/12/16 16:04:00;;;;;;;61.47;35.40;;;5.00;97.90;;;;;;5000635;28;20111;-66
2021/12/16 16:06:26;;;;;;;61.00;37.97;;;5.00;97.90;;;;;;4998764;28;20113;-66
2021/12/16 16:08:58;;;;;;;50.55;33.00;;;5.00;97.90;;;;;;4996895;28;20123;-66
2021/12/16 16:11:33;;;;;;;41.17;28.02;;;5.10;98.00;;;;;;5001688;28;20042;-66
2021/12/16 16:14:03;;;;;;;57.38;36.05;;;5.00;98.00;;;;;;4998405;28;20042;-66
2021/12/16 16:16:38;;;;;;;46.28;30.90;;;5.00;98.40;;;;;;5004443;28;20427;-66
2021/12/16 16:19:05;;;;;;;35.13;24.77;;;5.00;98.20;;;;;;4998540;28;20033;-65
2021/12/16 16:21:38;;;;;;;43.92;28.63;;;4.80;98.10;;;;;;5000205;28;20034;-66
2021/12/16 16:24:21;;;;;;;43.03;29.15;;;4.70;98.50;;;;;;4999484;28;20113;-66
2021/12/16 16:26:47;;;;;;;;;;;4.60;98.60;;;;;;5000489;28;20025;-66
2021/12/16 16:29:18;;;;;;;43.47;30.42;;;4.60;99.30;;;;;;4997297;28;19917;-66
2021/12/16 16:31:44;;;;;;;48.22;33.10;;;4.70;99.10;;;;;;5002731;28;20897;-66
2021/12/16 16:34:16;;;;;;;53.35;34.88;;;4.80;98.80;;;;;;5003630;28;20096;-66